YLY weather

Langley Airport
Langley, British Columbia, Canada

Public forecast

Using degrees Celsius for public forecast. Weather courtesy of forecast.io.

Closest aviation weather report (METAR) to Langley Airport

Closest report is Abbotsford Airport, 11.5 nm (21.4 km) ESE. Retrieved 2019/10/19 11:00 UTC (54 minutes ago):

CYXX 191100Z 04005KT 10SM OVC042 08/07 A2964 RMK SC8 SLP038

Closest aviation forecast (TAF) to Langley Airport

Closest forecast is Abbotsford Airport, 11.5 nm (21.4 km) ESE. Retrieved 2019/10/19 06:42 UTC (5 hours ago):

TAF TAF CYXX 190538Z 1906/2006 20006KT P6SM -SHRA SCT030 OVC050 TEMPO 1906/1910 5SM -SHRA BR SCT008 BKN015 OVC030 FM191000 09005KT P6SM SCT015 BKN030 TEMPO 1910/1918 3SM -SHRA BR SCT008 OVC015 PROB30 1910/1918 1SM BR BKN005 FM191800 VRB03KT P6SM -SHRA SCT015 OVC040 BECMG 1922/1924 20008KT RMK NXT FCST BY 191200Z